sensor_id;sensor_type;location;lat;lon;timestamp;pressure;altitude;pressure_sealevel;temperature;humidity
10732;BME280;5417;42.686;23.244;2023-02-13T00:00:47;96006.69;;;2.29;68.69
10732;BME280;5417;42.686;23.244;2023-02-13T00:03:14;96010.88;;;2.33;68.81
10732;BME280;5417;42.686;23.244;2023-02-13T00:05:41;96005.75;;;2.32;69.13
10732;BME280;5417;42.686;23.244;2023-02-13T00:08:08;96010.09;;;2.30;69.32
10732;BME280;5417;42.686;23.244;2023-02-13T00:10:37;96021.06;;;2.36;69.88
10732;BME280;5417;42.686;23.244;2023-02-13T00:13:04;95999.75;;;2.33;69.42
10732;BME280;5417;42.686;23.244;2023-02-13T00:15:31;96009.00;;;2.40;69.28
10732;BME280;5417;42.686;23.244;2023-02-13T00:18:00;96013.28;;;2.39;69.16
10732;BME280;5417;42.686;23.244;2023-02-13T00:20:27;96014.16;;;2.38;68.84
10732;BME280;5417;42.686;23.244;2023-02-13T00:22:54;96013.44;;;2.33;68.44
10732;BME280;5417;42.686;23.244;2023-02-13T00:25:21;96025.34;;;2.36;68.51
10732;BME280;5417;42.686;23.244;2023-02-13T00:27:51;96010.09;;;2.30;68.30
10732;BME280;5417;42.686;23.244;2023-02-13T00:30:18;96018.59;;;2.32;68.45
10732;BME280;5417;42.686;23.244;2023-02-13T00:32:45;96011.84;;;2.28;68.61
10732;BME280;5417;42.686;23.244;2023-02-13T00:35:12;96012.78;;;2.25;68.19
10732;BME280;5417;42.686;23.244;2023-02-13T00:37:39;96011.00;;;2.27;67.81
10732;BME280;5417;42.686;23.244;2023-02-13T00:40:09;96019.56;;;2.28;68.41
10732;BME280;5417;42.686;23.244;2023-02-13T00:42:36;96013.41;;;2.35;68.22
10732;BME280;5417;42.686;23.244;2023-02-13T00:45:05;96021.06;;;2.36;67.58
10732;BME280;5417;42.686;23.244;2023-02-13T00:47:33;96028.75;;;2.38;68.30
10732;BME280;5417;42.686;23.244;2023-02-13T00:50:02;96027.03;;;2.37;68.64
10732;BME280;5417;42.686;23.244;2023-02-13T00:52:29;96013.34;;;2.36;67.95
10732;BME280;5417;42.686;23.244;2023-02-13T00:54:57;96026.94;;;2.41;68.54
10732;BME280;5417;42.686;23.244;2023-02-13T00:57:28;96027.78;;;2.42;68.10
10732;BME280;5417;42.686;23.244;2023-02-13T00:59:58;96018.56;;;2.33;69.18
10732;BME280;5417;42.686;23.244;2023-02-13T01:02:26;96033.69;;;2.45;68.91
10732;BME280;5417;42.686;23.244;2023-02-13T01:04:53;96037.94;;;2.46;69.67
10732;BME280;5417;42.686;23.244;2023-02-13T01:07:21;96028.47;;;2.48;68.69
10732;BME280;5417;42.686;23.244;2023-02-13T01:09:48;96027.53;;;2.52;69.06
10732;BME280;5417;42.686;23.244;2023-02-13T01:12:15;96042.88;;;2.56;69.69
10732;BME280;5417;42.686;23.244;2023-02-13T01:14:42;96033.34;;;2.61;70.20
10732;BME280;5417;42.686;23.244;2023-02-13T01:17:09;96032.44;;;2.63;70.08
10732;BME280;5417;42.686;23.244;2023-02-13T01:19:39;96029.81;;;2.65;69.60
10732;BME280;5417;42.686;23.244;2023-02-13T01:22:07;96030.59;;;2.68;70.75
10732;BME280;5417;42.686;23.244;2023-02-13T01:24:34;96039.94;;;2.71;71.21
10732;BME280;5417;42.686;23.244;2023-02-13T01:27:01;96026.25;;;2.70;70.84
10732;BME280;5417;42.686;23.244;2023-02-13T01:29:28;96027.97;;;2.70;71.20
10732;BME280;5417;42.686;23.244;2023-02-13T01:31:55;96033.00;;;2.74;71.12
10732;BME280;5417;42.686;23.244;2023-02-13T01:34:22;96042.19;;;2.84;71.65
10732;BME280;5417;42.686;23.244;2023-02-13T01:36:50;96040.34;;;2.90;71.51
10732;BME280;5417;42.686;23.244;2023-02-13T01:39:17;96035.16;;;2.91;71.01
10732;BME280;5417;42.686;23.244;2023-02-13T01:41:45;96040.00;;;3.02;71.13
10732;BME280;5417;42.686;23.244;2023-02-13T01:44:44;96043.50;;;2.99;71.19
10732;BME280;5417;42.686;23.244;2023-02-13T01:47:14;96040.22;;;2.94;71.69
10732;BME280;5417;42.686;23.244;2023-02-13T01:49:44;96036.81;;;2.94;71.30
10732;BME280;5417;42.686;23.244;2023-02-13T01:52:21;96042.75;;;2.96;71.02
10732;BME280;5417;42.686;23.244;2023-02-13T01:54:48;96047.56;;;3.08;71.32
10732;BME280;5417;42.686;23.244;2023-02-13T01:57:18;96048.09;;;3.22;70.55
10732;BME280;5417;42.686;23.244;2023-02-13T01:59:50;96048.09;;;3.22;69.91
10732;BME280;5417;42.686;23.244;2023-02-13T02:02:19;96050.19;;;3.06;71.69
10732;BME280;5417;42.686;23.244;2023-02-13T02:04:48;96051.66;;;3.16;71.05
10732;BME280;5417;42.686;23.244;2023-02-13T02:07:20;96052.59;;;3.14;71.31
10732;BME280;5417;42.686;23.244;2023-02-13T02:09:51;96050.06;;;3.12;70.58
10732;BME280;5417;42.686;23.244;2023-02-13T02:12:24;96044.22;;;3.04;71.42
10732;BME280;5417;42.686;23.244;2023-02-13T02:14:52;96043.38;;;3.04;71.96
10732;BME280;5417;42.686;23.244;2023-02-13T02:17:21;96038.16;;;3.07;71.19
10732;BME280;5417;42.686;23.244;2023-02-13T02:19:57;96040.69;;;3.08;71.67
10732;BME280;5417;42.686;23.244;2023-02-13T02:29:10;96047.47;;;3.12;70.66
10732;BME280;5417;42.686;23.244;2023-02-13T02:32:09;96046.53;;;3.16;70.54
10732;BME280;5417;42.686;23.244;2023-02-13T02:34:50;96034.34;;;3.23;70.23
10732;BME280;5417;42.686;23.244;2023-02-13T02:37:31;96036.81;;;3.26;70.29
10732;BME280;5417;42.686;23.244;2023-02-13T02:40:10;96047.31;;;3.19;69.40
10732;BME280;5417;42.686;23.244;2023-02-13T02:42:59;96049.19;;;3.12;70.30
10732;BME280;5417;42.686;23.244;2023-02-13T02:45:43;96054.59;;;3.01;70.44
10732;BME280;5417;42.686;23.244;2023-02-13T02:48:21;96057.41;;;2.92;71.07
10732;BME280;5417;42.686;23.244;2023-02-13T02:51:14;96057.41;;;2.92;70.96
10732;BME280;5417;42.686;23.244;2023-02-13T02:53:52;96057.38;;;2.94;71.29
10732;BME280;5417;42.686;23.244;2023-02-13T02:56:33;96059.97;;;2.92;71.21
10732;BME280;5417;42.686;23.244;2023-02-13T02:59:05;96077.78;;;3.00;70.50
10732;BME280;5417;42.686;23.244;2023-02-13T03:01:52;96069.84;;;3.09;70.26
10732;BME280;5417;42.686;23.244;2023-02-13T03:04:42;96067.25;;;3.09;69.71
10732;BME280;5417;42.686;23.244;2023-02-13T03:07:31;96071.00;;;2.97;70.34
10732;BME280;5417;42.686;23.244;2023-02-13T03:10:05;96076.13;;;2.97;70.05
10732;BME280;5417;42.686;23.244;2023-02-13T03:12:53;96065.69;;;3.03;70.75
10732;BME280;5417;42.686;23.244;2023-02-13T03:15:39;96065.69;;;3.03;70.45
10732;BME280;5417;42.686;23.244;2023-02-13T03:18:21;96068.22;;;3.05;70.08
10732;BME280;5417;42.686;23.244;2023-02-13T03:21:09;96074.19;;;3.07;70.35
10732;BME280;5417;42.686;23.244;2023-02-13T03:24:00;96068.09;;;3.09;70.17
10732;BME280;5417;42.686;23.244;2023-02-13T03:26:37;96062.09;;;3.10;69.76
10732;BME280;5417;42.686;23.244;2023-02-13T03:29:20;96062.91;;;3.12;70.01
10732;BME280;5417;42.686;23.244;2023-02-13T03:32:16;96071.34;;;3.17;69.80
10732;BME280;5417;42.686;23.244;2023-02-13T03:34:51;96072.13;;;3.21;70.20
10732;BME280;5417;42.686;23.244;2023-02-13T03:37:44;96071.28;;;3.21;69.69
10732;BME280;5417;42.686;23.244;2023-02-13T03:40:26;96068.75;;;3.19;69.95
10732;BME280;5417;42.686;23.244;2023-02-13T03:43:03;96072.09;;;3.23;70.42
10732;BME280;5417;42.686;23.244;2023-02-13T03:45:43;96066.94;;;3.23;70.08
10732;BME280;5417;42.686;23.244;2023-02-13T03:48:24;96060.91;;;3.24;69.49
10732;BME280;5417;42.686;23.244;2023-02-13T03:51:12;96063.56;;;3.21;69.59
10732;BME280;5417;42.686;23.244;2023-02-13T03:53:43;96063.41;;;3.27;70.10
10732;BME280;5417;42.686;23.244;2023-02-13T03:56:12;96067.66;;;3.28;69.42
10732;BME280;5417;42.686;23.244;2023-02-13T03:59:01;96065.84;;;3.31;69.08
10732;BME280;5417;42.686;23.244;2023-02-13T04:01:51;96059.13;;;3.26;69.46
10732;BME280;5417;42.686;23.244;2023-02-13T04:04:22;96059.19;;;3.24;70.00
10732;BME280;5417;42.686;23.244;2023-02-13T04:06:53;96060.41;;;3.42;68.72
10732;BME280;5417;42.686;23.244;2023-02-13T04:09:24;96065.47;;;3.45;68.06
10732;BME280;5417;42.686;23.244;2023-02-13T04:11:57;96066.91;;;3.24;68.96
10732;BME280;5417;42.686;23.244;2023-02-13T04:14:33;96065.38;;;3.17;69.58
10732;BME280;5417;42.686;23.244;2023-02-13T04:17:06;96072.34;;;3.12;69.75
10732;BME280;5417;42.686;23.244;2023-02-13T04:19:34;96068.06;;;3.12;69.94
10732;BME280;5417;42.686;23.244;2023-02-13T04:22:02;96057.13;;;3.03;69.95
10732;BME280;5417;42.686;23.244;2023-02-13T04:24:32;96069.81;;;3.10;69.37
10732;BME280;5417;42.686;23.244;2023-02-13T04:26:59;96067.25;;;3.09;69.62
10732;BME280;5417;42.686;23.244;2023-02-13T04:29:25;96069.03;;;3.07;69.37
10732;BME280;5417;42.686;23.244;2023-02-13T04:31:53;96064.81;;;3.04;69.79
10732;BME280;5417;42.686;23.244;2023-02-13T04:34:20;96075.88;;;3.08;69.61
10732;BME280;5417;42.686;23.244;2023-02-13T04:36:47;96073.22;;;3.12;69.75
10732;BME280;5417;42.686;23.244;2023-02-13T04:39:15;96072.34;;;3.12;70.15
10732;BME280;5417;42.686;23.244;2023-02-13T04:41:43;96074.00;;;3.14;69.06
10732;BME280;5417;42.686;23.244;2023-02-13T04:44:18;96065.50;;;3.12;69.17
10732;BME280;5417;42.686;23.244;2023-02-13T04:46:45;96059.47;;;3.12;70.04
10732;BME280;5417;42.686;23.244;2023-02-13T04:49:12;96064.59;;;3.13;70.40
10732;BME280;5417;42.686;23.244;2023-02-13T04:51:39;96070.31;;;3.25;69.62
10732;BME280;5417;42.686;23.244;2023-02-13T04:54:06;96073.53;;;3.33;69.88
10732;BME280;5417;42.686;23.244;2023-02-13T04:56:33;96072.75;;;3.29;69.21
10732;BME280;5417;42.686;23.244;2023-02-13T04:59:01;96076.44;;;3.21;69.21
10732;BME280;5417;42.686;23.244;2023-02-13T05:01:28;96080.03;;;3.12;68.79
10732;BME280;5417;42.686;23.244;2023-02-13T05:03:56;96087.69;;;3.16;69.14
10732;BME280;5417;42.686;23.244;2023-02-13T05:06:23;96084.53;;;3.38;67.98
10732;BME280;5417;42.686;23.244;2023-02-13T05:08:51;96091.78;;;3.24;68.20
10732;BME280;5417;42.686;23.244;2023-02-13T05:11:18;96103.19;;;3.12;68.79
10732;BME280;5417;42.686;23.244;2023-02-13T05:13:45;96078.59;;;3.02;69.67
10732;BME280;5417;42.686;23.244;2023-02-13T05:16:13;96089.06;;;2.94;69.29
10732;BME280;5417;42.686;23.244;2023-02-13T05:18:43;96095.91;;;2.95;69.81
10732;BME280;5417;42.686;23.244;2023-02-13T05:21:11;96097.75;;;2.90;69.83
10732;BME280;5417;42.686;23.244;2023-02-13T05:23:58;96102.94;;;2.89;70.30
10732;BME280;5417;42.686;23.244;2023-02-13T05:26:25;96091.75;;;2.90;69.96
10732;BME280;5417;42.686;23.244;2023-02-13T05:28:53;96095.25;;;2.87;69.82
10732;BME280;5417;42.686;23.244;2023-02-13T05:31:42;96107.00;;;2.97;69.68
10732;BME280;5417;42.686;23.244;2023-02-13T05:34:09;96106.13;;;2.98;69.45
10732;BME280;5417;42.686;23.244;2023-02-13T05:36:42;96102.66;;;2.99;69.65
10732;BME280;5417;42.686;23.244;2023-02-13T05:39:09;96104.34;;;3.00;68.65
10732;BME280;5417;42.686;23.244;2023-02-13T05:41:37;96112.25;;;2.93;68.19
10732;BME280;5417;42.686;23.244;2023-02-13T05:44:04;96114.91;;;2.90;68.60
10732;BME280;5417;42.686;23.244;2023-02-13T05:46:31;96108.88;;;2.91;69.66
10732;BME280;5417;42.686;23.244;2023-02-13T05:49:00;96116.19;;;3.07;68.89
10732;BME280;5417;42.686;23.244;2023-02-13T05:51:27;96104.06;;;3.12;68.40
10732;BME280;5417;42.686;23.244;2023-02-13T05:53:54;96112.81;;;3.05;68.38
10732;BME280;5417;42.686;23.244;2023-02-13T05:56:21;96112.94;;;2.99;67.96
10732;BME280;5417;42.686;23.244;2023-02-13T05:58:50;96120.16;;;3.21;67.71
10732;BME280;5417;42.686;23.244;2023-02-13T06:01:18;96121.56;;;3.32;66.61
10732;BME280;5417;42.686;23.244;2023-02-13T06:03:45;96129.56;;;3.22;66.81
10732;BME280;5417;42.686;23.244;2023-02-13T06:06:14;96127.19;;;3.14;67.81
10732;BME280;5417;42.686;23.244;2023-02-13T06:08:41;96126.63;;;3.01;68.78
10732;BME280;5417;42.686;23.244;2023-02-13T06:11:08;96128.41;;;2.98;68.68
10732;BME280;5417;42.686;23.244;2023-02-13T06:13:35;96134.41;;;2.98;68.76
10732;BME280;5417;42.686;23.244;2023-02-13T06:16:05;96127.53;;;2.99;69.37
10732;BME280;5417;42.686;23.244;2023-02-13T06:18:32;96138.66;;;2.99;68.26
10732;BME280;5417;42.686;23.244;2023-02-13T06:21:00;96135.31;;;2.96;68.25
10732;BME280;5417;42.686;23.244;2023-02-13T06:23:29;96141.25;;;2.99;68.31
10732;BME280;5417;42.686;23.244;2023-02-13T06:25:56;96137.94;;;2.94;69.09
10732;BME280;5417;42.686;23.244;2023-02-13T06:28:27;96144.13;;;3.23;67.82
10732;BME280;5417;42.686;23.244;2023-02-13T06:30:54;96148.50;;;3.19;67.72
10732;BME280;5417;42.686;23.244;2023-02-13T06:33:20;96145.25;;;3.11;67.86
10732;BME280;5417;42.686;23.244;2023-02-13T06:35:49;96151.22;;;3.11;67.49
10732;BME280;5417;42.686;23.244;2023-02-13T06:38:16;96146.81;;;3.18;68.50
10732;BME280;5417;42.686;23.244;2023-02-13T06:40:47;96147.63;;;3.20;66.88
10732;BME280;5417;42.686;23.244;2023-02-13T06:43:14;96152.13;;;3.10;68.17
10732;BME280;5417;42.686;23.244;2023-02-13T06:45:42;96149.34;;;3.20;68.42
10732;BME280;5417;42.686;23.244;2023-02-13T06:48:11;96150.13;;;3.23;68.59
10732;BME280;5417;42.686;23.244;2023-02-13T06:50:38;96153.94;;;3.41;69.04
10732;BME280;5417;42.686;23.244;2023-02-13T06:53:05;96140.75;;;3.53;67.14
10732;BME280;5417;42.686;23.244;2023-02-13T06:55:34;96142.28;;;3.60;66.29
10732;BME280;5417;42.686;23.244;2023-02-13T06:58:05;96149.19;;;3.58;68.14
10732;BME280;5417;42.686;23.244;2023-02-13T07:00:32;96143.97;;;3.61;66.97
10732;BME280;5417;42.686;23.244;2023-02-13T07:03:01;96145.19;;;3.48;67.34
10732;BME280;5417;42.686;23.244;2023-02-13T07:05:28;96136.09;;;3.35;68.45
10732;BME280;5417;42.686;23.244;2023-02-13T07:07:56;96141.97;;;3.40;67.73
10732;BME280;5417;42.686;23.244;2023-02-13T07:10:23;96143.38;;;3.52;67.56
10732;BME280;5417;42.686;23.244;2023-02-13T07:12:50;96146.78;;;3.52;66.49
10732;BME280;5417;42.686;23.244;2023-02-13T07:15:18;96137.91;;;3.64;67.52
10732;BME280;5417;42.686;23.244;2023-02-13T07:17:45;96120.97;;;3.55;67.36
10732;BME280;5417;42.686;23.244;2023-02-13T07:20:12;96147.97;;;3.73;66.89
10732;BME280;5417;42.686;23.244;2023-02-13T07:22:39;96156.25;;;3.84;66.37
10732;BME280;5417;42.686;23.244;2023-02-13T07:25:06;96141.09;;;3.73;66.22
10732;BME280;5417;42.686;23.244;2023-02-13T07:27:34;96147.00;;;3.77;66.16
10732;BME280;5417;42.686;23.244;2023-02-13T07:30:00;96145.63;;;3.65;66.33
10732;BME280;5417;42.686;23.244;2023-02-13T07:32:34;96157.03;;;3.54;66.62
10732;BME280;5417;42.686;23.244;2023-02-13T07:35:03;96152.13;;;3.44;67.28
10732;BME280;5417;42.686;23.244;2023-02-13T07:37:35;96160.53;;;3.51;67.48
10732;BME280;5417;42.686;23.244;2023-02-13T07:40:02;96136.53;;;3.51;67.19
10732;BME280;5417;42.686;23.244;2023-02-13T07:42:31;96147.94;;;3.74;66.89
10732;BME280;5417;42.686;23.244;2023-02-13T07:44:58;96148.88;;;3.72;67.03
10732;BME280;5417;42.686;23.244;2023-02-13T07:47:26;96134.38;;;3.68;67.20
10732;BME280;5417;42.686;23.244;2023-02-13T07:49:54;96148.88;;;3.72;66.69
10732;BME280;5417;42.686;23.244;2023-02-13T07:52:21;96147.59;;;3.87;65.84
10732;BME280;5417;42.686;23.244;2023-02-13T07:54:47;96152.88;;;3.82;66.78
10732;BME280;5417;42.686;23.244;2023-02-13T07:57:16;96145.25;;;3.79;66.80
10732;BME280;5417;42.686;23.244;2023-02-13T07:59:43;96145.69;;;3.61;66.88
10732;BME280;5417;42.686;23.244;2023-02-13T08:02:12;96151.41;;;3.39;66.77
10732;BME280;5417;42.686;23.244;2023-02-13T08:04:42;96154.94;;;3.35;67.72
10732;BME280;5417;42.686;23.244;2023-02-13T08:07:13;96150.38;;;3.46;68.24
10732;BME280;5417;42.686;23.244;2023-02-13T08:09:40;96161.06;;;3.64;68.81
10732;BME280;5417;42.686;23.244;2023-02-13T08:12:29;96155.53;;;3.79;67.25
10732;BME280;5417;42.686;23.244;2023-02-13T08:14:57;96158.16;;;3.77;65.40
10732;BME280;5417;42.686;23.244;2023-02-13T08:17:25;96148.16;;;3.67;66.04
10732;BME280;5417;42.686;23.244;2023-02-13T08:19:52;96144.66;;;3.69;67.33
10732;BME280;5417;42.686;23.244;2023-02-13T08:22:20;96148.78;;;3.75;67.38
10732;BME280;5417;42.686;23.244;2023-02-13T08:24:47;96146.22;;;3.75;67.49
10732;BME280;5417;42.686;23.244;2023-02-13T08:27:14;96145.16;;;3.82;67.21
10732;BME280;5417;42.686;23.244;2023-02-13T08:29:41;96139.53;;;3.68;65.89
10732;BME280;5417;42.686;23.244;2023-02-13T08:32:08;96152.81;;;3.51;67.65
10732;BME280;5417;42.686;23.244;2023-02-13T08:34:35;96152.25;;;3.40;68.02
10732;BME280;5417;42.686;23.244;2023-02-13T08:37:02;96152.69;;;3.23;68.38
10732;BME280;5417;42.686;23.244;2023-02-13T08:39:31;96145.84;;;3.22;68.90
10732;BME280;5417;42.686;23.244;2023-02-13T08:41:59;96149.28;;;3.23;69.11
10732;BME280;5417;42.686;23.244;2023-02-13T08:44:26;96158.56;;;3.28;70.01
10732;BME280;5417;42.686;23.244;2023-02-13T08:46:53;96147.09;;;3.40;69.56
10732;BME280;5417;42.686;23.244;2023-02-13T08:49:20;96149.00;;;3.33;69.84
10732;BME280;5417;42.686;23.244;2023-02-13T08:51:47;96158.50;;;2.94;68.93
10732;BME280;5417;42.686;23.244;2023-02-13T08:54:15;96163.66;;;2.94;71.15
10732;BME280;5417;42.686;23.244;2023-02-13T08:56:43;96128.78;;;2.82;71.79
10732;BME280;5417;42.686;23.244;2023-02-13T08:59:10;96163.75;;;2.90;71.65
10732;BME280;5417;42.686;23.244;2023-02-13T09:01:37;96155.03;;;2.97;71.86
10732;BME280;5417;42.686;23.244;2023-02-13T09:04:04;96157.47;;;3.01;72.17
10732;BME280;5417;42.686;23.244;2023-02-13T09:06:31;96149.38;;;2.82;71.03
10732;BME280;5417;42.686;23.244;2023-02-13T09:08:58;96150.25;;;2.81;70.52
10732;BME280;5417;42.686;23.244;2023-02-13T09:11:25;96142.22;;;2.94;70.52
10732;BME280;5417;42.686;23.244;2023-02-13T09:13:53;96159.59;;;3.21;71.54
10732;BME280;5417;42.686;23.244;2023-02-13T09:16:20;96147.97;;;3.40;70.72
10732;BME280;5417;42.686;23.244;2023-02-13T09:18:48;96151.13;;;3.50;70.48
10732;BME280;5417;42.686;23.244;2023-02-13T09:21:15;96138.09;;;3.56;71.56
10732;BME280;5417;42.686;23.244;2023-02-13T09:23:42;96144.19;;;3.54;70.35
10732;BME280;5417;42.686;23.244;2023-02-13T09:26:12;96137.88;;;3.65;70.49
10732;BME280;5417;42.686;23.244;2023-02-13T09:28:40;96150.25;;;3.84;70.27
10732;BME280;5417;42.686;23.244;2023-02-13T09:31:09;96124.25;;;3.93;69.26
10732;BME280;5417;42.686;23.244;2023-02-13T09:33:37;96145.56;;;4.29;66.28
10732;BME280;5417;42.686;23.244;2023-02-13T09:36:04;96128.81;;;4.43;65.42
10732;BME280;5417;42.686;23.244;2023-02-13T09:38:31;96140.09;;;4.69;65.29
10732;BME280;5417;42.686;23.244;2023-02-13T09:41:00;96132.47;;;4.92;64.37
10732;BME280;5417;42.686;23.244;2023-02-13T09:43:30;96126.84;;;4.80;64.26
10732;BME280;5417;42.686;23.244;2023-02-13T09:46:01;96126.84;;;4.80;64.33
10732;BME280;5417;42.686;23.244;2023-02-13T09:48:34;96120.97;;;5.02;63.59
10732;BME280;5417;42.686;23.244;2023-02-13T09:51:03;96121.25;;;5.20;63.87
10732;BME280;5417;42.686;23.244;2023-02-13T09:53:31;96120.75;;;5.08;64.13
10732;BME280;5417;42.686;23.244;2023-02-13T09:56:11;96111.94;;;4.61;64.04
10732;BME280;5417;42.686;23.244;2023-02-13T09:58:42;96101.09;;;4.50;65.36
10732;BME280;5417;42.686;23.244;2023-02-13T10:01:19;96103.53;;;3.66;67.20
10732;BME280;5417;42.686;23.244;2023-02-13T10:04:00;96100.06;;;3.67;67.31
10732;BME280;5417;42.686;23.244;2023-02-13T10:06:36;96098.75;;;3.84;67.80
10732;BME280;5417;42.686;23.244;2023-02-13T10:09:21;96096.75;;;3.62;67.44
10732;BME280;5417;42.686;23.244;2023-02-13T10:12:11;96087.88;;;3.74;68.69
10732;BME280;5417;42.686;23.244;2023-02-13T10:14:44;96084.28;;;3.79;67.86
10732;BME280;5417;42.686;23.244;2023-02-13T10:17:15;96083.22;;;3.87;66.91
10732;BME280;5417;42.686;23.244;2023-02-13T10:19:49;96084.47;;;4.03;66.21
10732;BME280;5417;42.686;23.244;2023-02-13T10:22:22;96083.72;;;4.29;66.10
10732;BME280;5417;42.686;23.244;2023-02-13T10:24:55;96076.53;;;4.66;65.52
10732;BME280;5417;42.686;23.244;2023-02-13T10:27:24;96072.63;;;5.07;66.12
10732;BME280;5417;42.686;23.244;2023-02-13T10:29:54;96055.25;;;5.62;64.32
10732;BME280;5417;42.686;23.244;2023-02-13T10:32:54;96045.25;;;5.53;61.63
10732;BME280;5417;42.686;23.244;2023-02-13T10:35:40;96054.38;;;5.38;62.08
10732;BME280;5417;42.686;23.244;2023-02-13T10:38:16;96052.31;;;5.48;62.55
10732;BME280;5417;42.686;23.244;2023-02-13T10:40:53;96045.09;;;5.58;61.70
10732;BME280;5417;42.686;23.244;2023-02-13T10:43:27;96033.41;;;5.71;61.61
10732;BME280;5417;42.686;23.244;2023-02-13T10:46:02;96034.47;;;5.65;61.67
10732;BME280;5417;42.686;23.244;2023-02-13T10:48:46;96021.28;;;5.50;61.42
10732;BME280;5417;42.686;23.244;2023-02-13T10:51:24;96029.44;;;5.62;60.74
10732;BME280;5417;42.686;23.244;2023-02-13T10:54:05;96022.22;;;5.47;59.63
10732;BME280;5417;42.686;23.244;2023-02-13T10:56:38;96029.78;;;5.28;61.35
10732;BME280;5417;42.686;23.244;2023-02-13T10:59:29;96015.59;;;5.40;61.42
10732;BME280;5417;42.686;23.244;2023-02-13T11:02:02;96007.44;;;5.27;60.66
10732;BME280;5417;42.686;23.244;2023-02-13T11:04:35;95989.00;;;5.13;60.66
10732;BME280;5417;42.686;23.244;2023-02-13T11:07:03;95998.03;;;5.26;60.40
10732;BME280;5417;42.686;23.244;2023-02-13T11:09:40;96007.56;;;5.48;60.33
10732;BME280;5417;42.686;23.244;2023-02-13T11:12:23;96006.66;;;5.74;59.86
10732;BME280;5417;42.686;23.244;2023-02-13T11:14:54;96000.72;;;5.95;60.04
10732;BME280;5417;42.686;23.244;2023-02-13T11:17:23;95987.03;;;6.15;58.77
10732;BME280;5417;42.686;23.244;2023-02-13T11:19:54;95995.72;;;5.90;58.71
10732;BME280;5417;42.686;23.244;2023-02-13T11:22:29;95983.00;;;6.08;58.34
10732;BME280;5417;42.686;23.244;2023-02-13T11:25:00;95978.03;;;6.47;58.52
10732;BME280;5417;42.686;23.244;2023-02-13T11:27:31;95969.63;;;6.84;57.30
10732;BME280;5417;42.686;23.244;2023-02-13T11:30:01;95964.56;;;6.81;55.34
10732;BME280;5417;42.686;23.244;2023-02-13T11:32:31;95953.53;;;6.76;55.65
10732;BME280;5417;42.686;23.244;2023-02-13T11:35:24;95966.25;;;6.82;55.82
10732;BME280;5417;42.686;23.244;2023-02-13T11:38:10;95957.88;;;7.16;56.54
10732;BME280;5417;42.686;23.244;2023-02-13T11:40:39;95959.03;;;7.49;56.02
10732;BME280;5417;42.686;23.244;2023-02-13T11:43:16;95941.53;;;7.73;53.90
10732;BME280;5417;42.686;23.244;2023-02-13T11:45:45;95941.25;;;7.79;51.57
10732;BME280;5417;42.686;23.244;2023-02-13T11:48:21;95938.13;;;7.91;52.09
10732;BME280;5417;42.686;23.244;2023-02-13T11:50:54;95922.41;;;7.57;51.40
10732;BME280;5417;42.686;23.244;2023-02-13T11:53:26;95927.66;;;7.55;52.12
10732;BME280;5417;42.686;23.244;2023-02-13T11:56:04;95908.28;;;7.25;51.22
10732;BME280;5417;42.686;23.244;2023-02-13T11:58:34;95913.81;;;7.17;52.55
10732;BME280;5417;42.686;23.244;2023-02-13T12:01:14;95912.09;;;6.77;53.15
10732;BME280;5417;42.686;23.244;2023-02-13T12:04:04;95879.63;;;6.90;53.67
10732;BME280;5417;42.686;23.244;2023-02-13T12:06:33;95900.53;;;6.86;53.67
10732;BME280;5417;42.686;23.244;2023-02-13T12:09:10;95885.41;;;6.75;52.78
10732;BME280;5417;42.686;23.244;2023-02-13T12:11:42;95889.31;;;6.65;53.26
10732;BME280;5417;42.686;23.244;2023-02-13T12:14:13;95895.13;;;6.70;52.50
10732;BME280;5417;42.686;23.244;2023-02-13T12:16:45;95890.59;;;6.95;53.29
10732;BME280;5417;42.686;23.244;2023-02-13T12:19:18;95888.75;;;7.18;53.33
10732;BME280;5417;42.686;23.244;2023-02-13T12:22:02;95895.16;;;7.48;52.60
10732;BME280;5417;42.686;23.244;2023-02-13T12:24:47;95886.03;;;7.77;52.21
10732;BME280;5417;42.686;23.244;2023-02-13T12:27:22;95870.28;;;8.01;50.49
10732;BME280;5417;42.686;23.244;2023-02-13T12:30:23;95877.69;;;8.08;48.79
10732;BME280;5417;42.686;23.244;2023-02-13T12:32:59;95881.72;;;8.14;48.81
10732;BME280;5417;42.686;23.244;2023-02-13T12:35:41;95867.78;;;8.35;49.18
10732;BME280;5417;42.686;23.244;2023-02-13T12:38:19;95880.81;;;8.51;47.81
10732;BME280;5417;42.686;23.244;2023-02-13T12:41:03;95872.44;;;8.46;47.68
10732;BME280;5417;42.686;23.244;2023-02-13T12:44:05;95873.94;;;8.67;47.48
10732;BME280;5417;42.686;23.244;2023-02-13T12:46:47;95864.03;;;8.22;47.49
10732;BME280;5417;42.686;23.244;2023-02-13T12:49:38;95855.03;;;7.57;48.89
10732;BME280;5417;42.686;23.244;2023-02-13T12:52:22;95860.09;;;7.41;49.84
10732;BME280;5417;42.686;23.244;2023-02-13T12:55:10;95862.47;;;7.46;49.62
10732;BME280;5417;42.686;23.244;2023-02-13T12:57:55;95855.88;;;7.57;48.86
10732;BME280;5417;42.686;23.244;2023-02-13T13:00:36;95845.09;;;7.48;49.23
10732;BME280;5417;42.686;23.244;2023-02-13T13:03:24;95845.75;;;7.34;49.52
10732;BME280;5417;42.686;23.244;2023-02-13T13:06:07;95840.81;;;7.28;50.39
10732;BME280;5417;42.686;23.244;2023-02-13T13:09:01;95841.22;;;7.19;50.75
10732;BME280;5417;42.686;23.244;2023-02-13T13:11:53;95840.81;;;7.28;50.82
10732;BME280;5417;42.686;23.244;2023-02-13T13:14:33;95819.91;;;7.33;51.03
10732;BME280;5417;42.686;23.244;2023-02-13T13:17:07;95843.34;;;7.67;49.12
10732;BME280;5417;42.686;23.244;2023-02-13T13:19:43;95836.97;;;7.55;49.10
10732;BME280;5417;42.686;23.244;2023-02-13T13:22:18;95828.28;;;7.56;49.60
10732;BME280;5417;42.686;23.244;2023-02-13T13:24:54;95826.63;;;7.37;50.07
10732;BME280;5417;42.686;23.244;2023-02-13T13:27:28;95829.34;;;7.52;50.51
10732;BME280;5417;42.686;23.244;2023-02-13T13:30:00;95828.78;;;7.65;49.47
10732;BME280;5417;42.686;23.244;2023-02-13T13:32:29;95818.03;;;7.72;49.54
10732;BME280;5417;42.686;23.244;2023-02-13T13:34:58;95811.63;;;7.62;49.62
10732;BME280;5417;42.686;23.244;2023-02-13T13:37:31;95814.31;;;7.42;49.66
10732;BME280;5417;42.686;23.244;2023-02-13T13:40:15;95826.22;;;7.46;49.67
10732;BME280;5417;42.686;23.244;2023-02-13T13:42:50;95808.56;;;7.16;50.46
10732;BME280;5417;42.686;23.244;2023-02-13T13:45:27;95827.38;;;7.01;50.96